AirNav   Duncan Aviation - Near you to keep you flying
 
 1361 users online  

16G Seneca County Airport
Tiffin, Ohio, USA

GOING TO TIFFIN?


FAA INFORMATION EFFECTIVE 19 MAY 2022

Location

FAA Identifier: 16G
Lat/Long: 41-05-38.6000N 083-12-45.0000W
41-05.643333N 083-12.750000W
41.0940556,-83.2125000
(estimated)
Elevation: 785.9 ft. / 239.5 m (surveyed)
Variation: 05W (1985)
From city: 2 miles SW of TIFFIN, OH
Time zone: UTC -4 (UTC -5 during Standard Time)
Zip code: 44883

Airport Operations

Airport use: Open to the public
Control tower: no
ARTCC: CLEVELAND CENTER
FSS: CLEVELAND FLIGHT SERVICE STATION
NOTAMs facility: CLE (NOTAM-D service available)
Attendance: 0800-DUSK
UNATNDD MAJOR HOLS.
Wind indicator: lighted
Segmented circle: no
Lights: ACTVT REIL RWY 06 & 24; PAPI RWY 06 & 24; MIRL RWY 06/24 - CTAF.
Beacon: white-green (lighted land airport)
Operates sunset to sunrise.

Airport Communications

CTAF/UNICOM: 123.0
WX AWOS-3: 127.175 (419-443-1043)
TOLEDO APPROACH: 120.8
TOLEDO DEPARTURE: 120.8
WX AWOS-3 at FZI (10 nm NW): 124.625 (419-436-0053)
WX AWOS-3 at S24 (14 nm NE): 119.575 (419-547-6932)

Nearby radio navigation aids

VOR radial/distance  VOR name  Freq  Var
FBCr073/26.0FLAG CITY VORTAC108.2002W
BUDr352/(29.4)BUCKEYE VOR109.8005W
MFDr299/31.2MANSFIELD VORTAC108.8003W

 
NDB name  Hdg/Dist  Freq  Var  ID
TIFFINat field26905WTII - .. ..
PORT CLINTON218/29.842307WPCW .--. -.-. .--

Airport Services

Fuel available: 100LL JET-A+
100LL:100LL & JET A+ AVBL AFT HRS & HOLS SELF SVC VIA CREDIT CARD.
Parking: hangars and tiedowns
Airframe service: MAJOR
Powerplant service: MAJOR
Bottled oxygen: HIGH
Bulk oxygen: HIGH/LOW

Runway Information

Runway 6/24

Dimensions: 4000 x 75 ft. / 1219 x 23 m
Surface: asphalt, in good condition
Runway edge lights: medium intensity
RUNWAY 6  RUNWAY 24
Latitude: 41-05.461090N41-05.824897N
Longitude: 083-13.113030W083-12.387342W
Elevation: 785.9 ft.781.1 ft.
Traffic pattern: leftleft
Runway heading: 061 magnetic, 056 true241 magnetic, 236 true
Markings: nonprecision, in good conditionnonprecision, in good condition
Visual slope indicator: 4-light PAPI on left (3.00 degrees glide path)
PAPI UNUSBL BYD 5 DEGS LEFT OF CNTRLN.
4-light PAPI on left (3.00 degrees glide path)
PAPI UNUSBL BYD 4 DEGS LEFT & 8 DEGS RIGHT OF CNTRLN
Runway end identifier lights: yesyes
Touchdown point: yes, no lightsyes, no lights
Obstructions: none80 ft. trees, 611 ft. from runway, 297 ft. left of centerline, 5:1 slope to clear

Airport Ownership and Management from official FAA records

Ownership: Publicly-owned
Owner: SENECA COUNTY COMMISSIONERS
81 JEFFERSON ST
TIFFIN, OH 44883
Phone 419-447-4550
Manager: BRAD NEWMAN
1778 W US HIGHWAY 224
TIFFIN, OH 44883-8820
Phone 419-447-4263

Airport Operational Statistics

Aircraft based on the field: 31
Single engine airplanes: 22
Multi engine airplanes: 8
Jet airplanes: 1
    
Aircraft operations: avg 165/day *
68% local general aviation
23% transient general aviation
8% air taxi
<1% military
* for 12-month period ending 01 October 2021

Additional Remarks

FOR CD CTC TOLEDO APCH AT 419-865-1495.

Instrument Procedures

NOTE: All procedures below are presented as PDF files. If you need a reader for these files, you should download the free Adobe Reader.

NOT FOR NAVIGATION. Please procure official charts for flight.
FAA instrument procedures published for use from 19 May 2022 at 0901Z to 16 June 2022 at 0900Z.

 
IAPs - Instrument Approach Procedures
RNAV (GPS) RWY 06   download (195KB)
RNAV (GPS) RWY 24   download (210KB)
VOR RWY 06   download (197KB)
NDB RWY 24   download (176KB)
NOTE: Special Take-Off Minimums/Departure Procedures apply   download (164KB)

Other nearby airports with instrument procedures:

KFZI - Fostoria Metro Airport (10 nm NW)
56D - Wyandot County Airport (13 nm S)
S24 - Sandusky County Regional Airport (14 nm NE)
14G - Fremont Airport (15 nm N)
KFDY - Findlay Airport (21 nm W)
 
Loc | Ops | Rwys | IFR | FBO | Links
Com | Nav | Svcs | Stats | Notes
Area around 16G (Seneca County Airport)
 
Road maps at: MapQuest Bing Google
 
Aerial photo
WARNING: Photo may not be current or correct
Aerial photo of 16G (Seneca County Airport)
Do you have a better or more recent aerial photo of Seneca County Airport that you would like to share? If so, please send us your photo.

 
Sectional chart

 
Airport distance calculator
Flying to Seneca County Airport? Find the distance to fly.

From to 16G

Sunrise and sunset
Times for 19-May-2022
 Local
(UTC-4)
 Zulu
(UTC)
Morning civil twilight05:4009:40
Sunrise06:1210:12
Sunset20:4700:47
Evening civil twilight21:1801:18

Current date and time
Zulu (UTC)  19-May-2022 13:25:46
Local (UTC-4)  19-May-2022 09:25:46
 
METAR
KFDY 
21nm W 
191253Z AUTO 25009KT 7SM OVC012 17/14 A2976 RMK AO2 SLP071 T01720139
KMNN 
29nm S 
191253Z AUTO 29006KT 5SM HZ FEW013 SCT018 OVC023 18/15 A2979 RMK AO2 SLP086 T01780150
KPCW 
30nm NE 
191255Z AUTO 28010KT 10SM BKN018 16/15 A2974 RMK AO2
KTDZ 
31nm NW 
191253Z AUTO 25008KT 8SM BKN013 16/13 A2975 RMK AO2 SLP074 T01610128
KOWX 
35nm W 
191255Z AUTO 24008KT 5SM BKN012 17/13 A2979 RMK AO1
KMFD 
36nm SE 
191304Z 25007KT 220V280 7SM SCT013 BKN024 18/15 A2978 RMK AO2 T01830150
KTOL 
40nm NW 
191252Z 27007KT 10SM BKN011 16/12 A2974 RMK AO2 SLP069 T01610117
TAF
KFDY 
21nm W 
191135Z 1912/2012 28010KT 4SM BR BKN015 FM191500 25010KT P6SM SCT200 FM191900 22012G18KT P6SM FEW150 FM200000 19008KT P6SM FEW200 FM200700 19013G20KT P6SM VCSH BKN080
NOTAMs
Click for the latest NOTAMs
NOTAMs are issued by the DoD/FAA and will open in a separate window not controlled by AirNav.

 

 
 

FBO, Fuel Providers, and Aircraft Ground Support

  
 Business Name 
 
 Contact 
 
 Services / Description 
 
Fuel Prices
 
Comments
  
Tiffin Aire 419-447-4263
no information available

If you are affiliated with Tiffin Aire and would like to show here your services, contact info, web link, logo, and more, click here
100LL Jet A
FS $5.71 $5.20 
 Updated 17-May-2022
 
   14 read write
FS=Full service
Update Fuel Prices
 

Would you like to see your business listed on this page?

 If your business provides an interesting product or service to pilots, flight crews, aircraft, or users of the Seneca County Airport, you should consider listing it here.  To start the listing process, click on the button below
 
Add a business
 

Other Pages about Seneca County Airport

Update a link
 
Copyright © AirNav, LLC. All rights reserved. Privacy Policy  Contact